createdAt,value
2023-04-21T00:03:04.121Z,10.80
2023-04-21T00:05:32.307Z,6.80
2023-04-21T00:08:41.046Z,8.80
2023-04-21T00:11:12.432Z,7.20
2023-04-21T00:17:20.572Z,11.53
2023-04-21T00:20:20.894Z,14.40
2023-04-21T00:22:51.950Z,13.33
2023-04-21T00:25:20.157Z,8.77
2023-04-21T00:27:47.742Z,9.70
2023-04-21T00:30:28.569Z,15.23
2023-04-21T00:36:37.183Z,11.33
2023-04-21T00:43:30.846Z,7.63
2023-04-21T00:46:28.109Z,7.70
2023-04-21T00:49:19.572Z,7.50
2023-04-21T00:55:29.754Z,8.47
2023-04-21T00:58:04.601Z,8.00
2023-04-21T01:00:59.131Z,6.73
2023-04-21T01:04:17.792Z,10.70
2023-04-21T01:07:29.103Z,8.03
2023-04-21T01:10:02.957Z,11.70
2023-04-21T01:12:34.262Z,10.90
2023-04-21T01:19:31.875Z,17.57
2023-04-21T01:22:11.761Z,5.17
2023-04-21T01:28:27.003Z,11.13
2023-04-21T01:31:31.860Z,8.50
2023-04-21T01:38:29.367Z,8.10
2023-04-21T01:44:37.645Z,6.63
2023-04-21T01:47:49.274Z,11.60
2023-04-21T01:50:34.852Z,10.93
2023-04-21T01:53:05.247Z,5.93
2023-04-21T01:55:36.253Z,5.17
2023-04-21T02:01:52.260Z,5.37
2023-04-21T02:08:07.422Z,16.53
2023-04-21T02:11:04.632Z,10.30
2023-04-21T02:14:14.659Z,8.27
2023-04-21T02:24:16.378Z,9.80
2023-04-21T02:26:44.836Z,10.30
2023-04-21T02:29:12.466Z,6.83
2023-04-21T02:35:28.216Z,7.83
2023-04-21T02:37:58.478Z,5.13
2023-04-21T02:44:07.932Z,10.53
2023-04-21T02:46:47.295Z,11.10
2023-04-21T02:49:51.039Z,11.80
2023-04-21T02:52:40.536Z,6.10
2023-04-21T02:56:04.749Z,5.80
2023-04-21T02:58:39.707Z,9.30
2023-04-21T03:09:06.213Z,11.10
2023-04-21T03:12:31.222Z,4.17
2023-04-21T03:18:45.957Z,5.70
2023-04-21T03:21:13.689Z,8.27
2023-04-21T03:23:41.301Z,9.97
2023-04-21T03:27:02.307Z,6.30
2023-04-21T03:33:25.412Z,6.57
2023-04-21T03:39:40.516Z,5.90
2023-04-21T03:42:24.497Z,8.73
2023-04-21T03:44:52.363Z,13.67
2023-04-21T03:51:03.119Z,13.80
2023-04-21T03:54:24.889Z,8.80
2023-04-21T03:56:54.771Z,13.60
2023-04-21T03:59:46.930Z,5.47
2023-04-21T04:13:35.694Z,18.33
2023-04-21T04:16:03.483Z,6.67
2023-04-21T04:18:39.857Z,14.93
2023-04-21T04:21:14.639Z,9.20
2023-04-21T04:24:19.923Z,19.63
2023-04-21T04:27:49.831Z,7.50
2023-04-21T04:34:17.152Z,10.00
2023-04-21T04:36:48.765Z,4.37
2023-04-21T04:39:30.749Z,6.13
2023-04-21T04:42:37.835Z,6.30
2023-04-21T04:48:54.418Z,8.87
2023-04-21T04:55:08.760Z,7.20
2023-04-21T04:57:57.599Z,5.60
2023-04-21T05:04:46.543Z,8.37
2023-04-21T05:07:45.661Z,7.30
2023-04-21T05:10:26.003Z,8.50
2023-04-21T05:16:15.146Z,8.87
2023-04-21T05:18:46.777Z,11.37
2023-04-21T05:24:25.927Z,5.60
2023-04-21T05:27:38.887Z,7.73
2023-04-21T05:30:36.987Z,5.80
2023-04-21T05:33:13.228Z,4.70
2023-04-21T05:35:56.863Z,13.87
2023-04-21T05:39:06.929Z,8.43
2023-04-21T05:41:43.463Z,6.87
2023-04-21T05:44:53.268Z,7.83
2023-04-21T05:47:47.666Z,6.43
2023-04-21T05:50:37.171Z,6.50
2023-04-21T05:59:36.726Z,7.53
2023-04-21T06:02:10.679Z,8.50
2023-04-21T06:05:12.958Z,12.43
2023-04-21T06:08:15.569Z,7.77
2023-04-21T06:14:49.835Z,8.83
2023-04-21T06:17:32.769Z,8.70
2023-04-21T06:24:07.653Z,37.67
2023-04-21T06:27:25.845Z,47.80
2023-04-21T06:30:22.209Z,43.77
2023-04-21T06:33:21.957Z,88.60
2023-04-21T06:36:10.071Z,64.33
2023-04-21T06:39:38.364Z,56.10
2023-04-21T06:42:25.080Z,26.80
2023-04-21T06:45:07.735Z,18.47
2023-04-21T06:50:23.169Z,20.43
2023-04-21T06:53:27.710Z,64.50
2023-04-21T06:56:20.045Z,6.23
2023-04-21T06:59:07.363Z,12.77
2023-04-21T07:01:44.011Z,43.57
2023-04-21T07:04:34.187Z,53.07
2023-04-21T07:07:23.729Z,36.13
2023-04-21T07:10:19.864Z,10.90
2023-04-21T07:12:47.461Z,10.23
2023-04-21T07:15:20.506Z,14.33
2023-04-21T07:18:12.431Z,27.27
2023-04-21T07:20:55.702Z,18.40
2023-04-21T07:23:41.933Z,20.07
2023-04-21T07:26:28.001Z,7.20
2023-04-21T07:29:40.881Z,8.83
2023-04-21T07:32:19.669Z,9.77
2023-04-21T07:34:50.446Z,7.53
2023-04-21T07:37:55.641Z,9.67
2023-04-21T07:40:31.072Z,8.70
2023-04-21T07:43:10.958Z,10.20
2023-04-21T07:45:56.882Z,8.97
2023-04-21T07:48:35.695Z,7.80
2023-04-21T07:51:47.263Z,5.77
2023-04-21T07:54:38.326Z,14.00
2023-04-21T07:57:44.083Z,16.23
2023-04-21T08:00:35.041Z,8.60
2023-04-21T08:03:15.172Z,5.57
2023-04-21T08:09:35.314Z,8.43
2023-04-21T08:12:39.610Z,7.93
2023-04-21T08:15:13.474Z,11.93
2023-04-21T08:17:53.522Z,5.83
2023-04-21T08:20:35.474Z,7.67
2023-04-21T08:23:23.726Z,6.73
2023-04-21T08:25:58.497Z,5.00
2023-04-21T08:29:00.694Z,6.90
2023-04-21T08:31:30.639Z,10.70
2023-04-21T08:34:02.426Z,13.20
2023-04-21T08:36:32.408Z,4.50
2023-04-21T08:39:00.768Z,7.33
2023-04-21T08:41:29.611Z,9.00
2023-04-21T08:43:57.902Z,6.53
2023-04-21T08:46:26.553Z,10.77
2023-04-21T08:48:55.616Z,11.27
2023-04-21T08:51:24.985Z,7.77
2023-04-21T08:53:55.751Z,3.77
2023-04-21T08:56:26.052Z,7.70
2023-04-21T08:58:56.190Z,37.70
2023-04-21T09:01:23.748Z,9.93
2023-04-21T09:03:54.225Z,6.57
2023-04-21T09:06:24.295Z,6.93
2023-04-21T09:08:57.190Z,10.73
2023-04-21T09:11:33.845Z,8.03
2023-04-21T09:14:03.651Z,8.60
2023-04-21T09:16:33.898Z,7.63
2023-04-21T09:19:01.801Z,9.83
2023-04-21T09:21:31.954Z,5.90
2023-04-21T09:24:01.629Z,9.03
2023-04-21T09:26:29.510Z,13.07
2023-04-21T09:28:58.084Z,9.07
2023-04-21T09:31:26.100Z,5.87
2023-04-21T09:36:43.470Z,9.80
2023-04-21T09:40:04.157Z,9.97
2023-04-21T09:42:36.324Z,9.20
2023-04-21T09:48:06.855Z,5.23
2023-04-21T09:51:07.529Z,5.30
2023-04-21T09:53:28.396Z,8.23
2023-04-21T09:55:57.249Z,5.10
2023-04-21T09:58:36.651Z,7.53
2023-04-21T10:01:05.266Z,5.77
2023-04-21T10:03:34.192Z,5.70
2023-04-21T10:06:16.706Z,6.10
2023-04-21T10:09:25.051Z,6.90
2023-04-21T10:12:24.932Z,11.00
2023-04-21T10:15:05.637Z,8.87
2023-04-21T10:17:41.508Z,4.73
2023-04-21T10:20:11.813Z,10.13
2023-04-21T10:22:40.571Z,7.53
2023-04-21T10:25:11.080Z,6.87
2023-04-21T10:27:41.269Z,3.33
2023-04-21T10:30:29.290Z,10.20
2023-04-21T10:33:06.189Z,9.37
2023-04-21T10:40:10.649Z,9.90
2023-04-21T10:43:06.830Z,6.67
2023-04-21T10:54:23.553Z,5.87
2023-04-21T10:56:54.997Z,3.90
2023-04-21T11:03:10.540Z,8.17
2023-04-21T11:05:45.128Z,6.17
2023-04-21T11:12:40.451Z,7.77
2023-04-21T11:15:18.794Z,5.90
2023-04-21T11:18:01.635Z,4.33
2023-04-21T11:26:46.788Z,4.80
2023-04-21T11:47:18.860Z,7.30
2023-04-21T12:09:48.712Z,24.80
2023-04-21T12:17:02.802Z,4.53
2023-04-21T12:22:32.139Z,8.97
2023-04-21T12:24:59.815Z,10.60
2023-04-21T12:28:07.652Z,7.20
2023-04-21T12:30:44.608Z,10.67
2023-04-21T12:33:44.988Z,6.70
2023-04-21T12:36:35.963Z,4.60
2023-04-21T12:39:07.020Z,8.10
2023-04-21T12:41:57.382Z,6.73
2023-04-21T12:44:36.184Z,10.13
2023-04-21T12:47:18.872Z,5.50
2023-04-21T12:49:47.565Z,3.97
2023-04-21T12:52:15.344Z,6.80
2023-04-21T12:54:43.458Z,4.50
2023-04-21T12:57:11.138Z,6.10
2023-04-21T12:59:38.607Z,9.90
2023-04-21T13:02:06.266Z,9.67
2023-04-21T13:04:34.281Z,8.00
2023-04-21T13:07:01.820Z,5.70
2023-04-21T13:09:29.627Z,7.60
2023-04-21T13:11:57.498Z,13.00
2023-04-21T13:14:25.137Z,9.87
2023-04-21T13:16:53.442Z,5.47
2023-04-21T13:19:23.337Z,8.33
2023-04-21T13:21:53.431Z,12.30
2023-04-21T13:25:08.405Z,10.83
2023-04-21T13:27:39.219Z,5.30
2023-04-21T13:30:12.234Z,13.80
2023-04-21T13:32:40.092Z,7.57
2023-04-21T13:35:11.493Z,7.30
2023-04-21T13:37:40.777Z,6.90
2023-04-21T13:55:35.941Z,8.50
2023-04-21T13:58:03.763Z,10.10
2023-04-21T14:00:40.914Z,6.63
2023-04-21T23:09:52.072Z,6.07
